APL Coral — WDF6832 — position and weather

sailwx.info

Track history (hours):
 
Tides and Currents Weather Stations Pressure Air Temp Water Temp Dewpoint Dewpoint Depression Visibility Wind Speed Wind Dir Waves Ship Positions

APL Coral

Owner: APL Maritime Ltd., Bethesda, MD. More information available from US FCC via Universal Licensing System and Coast Guard Vessel Documentation Center.

Last reported at 2014-Dec-21 00:00 UTC. Time now 2014-Dec-22 01:15 UTC.
Position N 36°48' W 074°24'.

Length 275 m; draft 12.5 m.

Type: Ship (hazmat cat A). MMSI: 367478280.

Wind from 290 at 17 knots

Waves 2.5 meters (8 feet), 8 second period

Barometer 1020.0 mb
Air temperature 7.0 ° C
Visibility: greater than 10.8 NM
Dewpoint 2.1 ° C
Water temperature 17.0 ° C

Date/timePositionNaut miles runAvg speedWind from/ knotsBaromVisibWave heightAir tempDewpointWater temp
2014-Dec-21 00:00N 36°48' W 074°24'   290 / 171020.010.8 2.5 7.0 2.117.0
2014-Dec-18 18:00N 32°36' W 078°18'14215.0 270 / 51016.027.0 18.0 8.324.0
2014-Dec-18 08:31N 32°05' W 081°02'5 5.1
2014-Dec-18 07:33N 32°07' W 081°07'1 0.9
2014-Dec-18 06:31N 32°07' W 081°08'0 0.0
2014-Dec-18 05:33N 32°07' W 081°08'0 0.0
2014-Dec-18 04:33N 32°07' W 081°08'0 0.0
2014-Dec-18 03:33N 32°07' W 081°08'0 0.0
2014-Dec-18 02:33N 32°07' W 081°08'0 0.0
2014-Dec-18 01:33N 32°07' W 081°08'0 0.0
2014-Dec-18 00:34N 32°07' W 081°08'0 0.0
2014-Dec-17 23:19N 32°07' W 081°08'0 0.0
2014-Dec-17 22:33N 32°07' W 081°08'0 0.0
2014-Dec-17 21:33N 32°07' W 081°08'0 0.0
2014-Dec-17 20:33N 32°07' W 081°08'0 0.0
2014-Dec-17 19:33N 32°07' W 081°08'0 0.0
2014-Dec-17 18:33N 32°07' W 081°08'0 0.0
2014-Dec-17 17:33N 32°07' W 081°08'0 0.0
2014-Dec-17 16:33N 32°07' W 081°08'0 0.0
2014-Dec-17 15:33N 32°07' W 081°08'0 0.0
2014-Dec-17 14:33N 32°07' W 081°08'0 0.0
2014-Dec-17 13:33N 32°07' W 081°08'0 0.0
2014-Dec-17 12:33N 32°07' W 081°08'0 0.0
2014-Dec-17 11:33N 32°07' W 081°08'1 0.9
2014-Dec-17 10:32N 32°07' W 081°07'6 5.3
2014-Dec-17 09:28N 32°06' W 081°01'10911.5
2014-Dec-17 00:00N 32°24' W 078°54'15616.5 140 / 211014.010.8 1.522.011.324.0
2014-Dec-16 14:32N 33°58' W 076°25'4418.6
2014-Dec-16 12:09N 34°27' W 075°45'1017.1
2014-Dec-16 11:33N 34°34' W 075°35'30719.2
2014-Dec-15 19:33N 39°30' W 073°53'2019.8
2014-Dec-15 18:33N 39°50' W 073°52'1817.1
2014-Dec-15 17:31N 40°07' W 073°50'1010.0
2014-Dec-15 16:33N 40°17' W 073°49'9 8.6
2014-Dec-15 15:33N 40°25' W 073°50'1010.0
2014-Dec-15 14:33N 40°31' W 074°00'9 9.1
2014-Dec-15 13:33N 40°39' W 074°08'2 1.7
2014-Dec-15 12:32N 40°40' W 074°09'0 0.0
2014-Dec-15 11:32N 40°40' W 074°09'0 0.0
2014-Dec-15 10:32N 40°40' W 074°09'0 0.0
2014-Dec-15 09:29N 40°40' W 074°08'0 0.0
2014-Dec-15 08:32N 40°40' W 074°09'0 0.0
2014-Dec-15 07:32N 40°40' W 074°09'0 0.0
2014-Dec-15 06:29N 40°40' W 074°09'0 0.0
2014-Dec-15 05:32N 40°40' W 074°09'0 0.0
2014-Dec-15 04:32N 40°40' W 074°09'0 0.0
2014-Dec-15 03:32N 40°40' W 074°09'0 0.0
2014-Dec-15 02:32N 40°40' W 074°09'0 0.0
2014-Dec-15 01:32N 40°40' W 074°09'0 0.0
2014-Dec-15 00:32N 40°40' W 074°09'0 0.0
2014-Dec-14 23:32N 40°40' W 074°09'0 0.0
2014-Dec-14 22:32N 40°40' W 074°09'0 0.0
2014-Dec-14 21:32N 40°40' W 074°09'0 0.0
2014-Dec-14 20:32N 40°40' W 074°09'0 0.0
2014-Dec-14 19:32N 40°40' W 074°09'0 0.0
2014-Dec-14 18:33N 40°40' W 074°09'0 0.0
2014-Dec-14 17:33N 40°40' W 074°09'0 0.0
2014-Dec-14 16:33N 40°40' W 074°09'0 0.0
2014-Dec-14 15:33N 40°40' W 074°09'0 0.0
2014-Dec-14 14:33N 40°40' W 074°09'0 0.0
2014-Dec-14 13:33N 40°40' W 074°09'0 0.0
2014-Dec-14 12:33N 40°40' W 074°09'1 1.4
2014-Dec-14 11:34N 40°39' W 074°09'6 5.5
2014-Dec-14 10:33N 40°36' W 074°03'1110.7
2014-Dec-14 09:33N 40°29' W 073°53'8 8.2
2014-Dec-14 08:33N 40°27' W 073°42'9 8.0
2014-Dec-14 07:22N 40°28' W 073°30'2512.8
2014-Dec-14 05:27N 40°30' W 072°58'1617.7
2014-Dec-14 04:33N 40°30' W 072°37'1817.7
2014-Dec-14 03:33N 40°31' W 072°14'1817.7
2014-Dec-14 02:34N 40°32' W 071°50'1817.7
2014-Dec-14 01:33N 40°32' W 071°27'1817.6
2014-Dec-14 00:33N 40°32' W 071°04'1221.9
2014-Dec-14 00:00N 40°30' W 070°48'814.8 060 / 201003.010.8 1.0 7.0-0.912.0
2014-Dec-13 23:28N 40°33' W 070°39'1817.7
2014-Dec-13 22:27N 40°34' W 070°15'1617.6
2014-Dec-13 21:33N 40°34' W 069°54'2018.2
2014-Dec-13 20:27N 40°34' W 069°28'45510.2
2014-Dec-12 00:00N 43°36' W 060°06'35019.4 110 / 241011.710.8 3.012.010.1 9.0
2014-Dec-11 06:00N 41°54' W 052°30'12020.0 110 / 321016.8 5.4 18.818.8
2014-Dec-11 00:00N 41°12' W 050°00'   120 / 181019.510.8 20.019.220.0
Track history (hours):
 
Tides and Currents Weather Stations Pressure Air Temp Water Temp Dewpoint Dewpoint Depression Visibility Wind Speed Wind Dir Waves Ship Positions

APL Coral

Owner: APL Maritime Ltd., Bethesda, MD. More information available from US FCC via Universal Licensing System and Coast Guard Vessel Documentation Center.

Last reported at 2014-Dec-21 00:00 UTC. Time now 2014-Dec-22 01:15 UTC.
Position N 36°48' W 074°24'.

Length 275 m; draft 12.5 m.

Type: Ship (hazmat cat A). MMSI: 367478280.

Wind from 290 at 17 knots

Waves 2.5 meters (8 feet), 8 second period

Barometer 1020.0 mb
Air temperature 7.0 ° C
Visibility: greater than 10.8 NM
Dewpoint 2.1 ° C
Water temperature 17.0 ° C

Date/timePositionNaut miles runAvg speedWind from/ knotsBaromVisibWave heightAir tempDewpointWater temp
2014-Dec-21 00:00N 36°48' W 074°24'   290 / 171020.010.8 2.5 7.0 2.117.0
2014-Dec-18 18:00N 32°36' W 078°18'14215.0 270 / 51016.027.0 18.0 8.324.0
2014-Dec-18 08:31N 32°05' W 081°02'5 5.1
2014-Dec-18 07:33N 32°07' W 081°07'1 0.9
2014-Dec-18 06:31N 32°07' W 081°08'0 0.0
2014-Dec-18 05:33N 32°07' W 081°08'0 0.0
2014-Dec-18 04:33N 32°07' W 081°08'0 0.0
2014-Dec-18 03:33N 32°07' W 081°08'0 0.0
2014-Dec-18 02:33N 32°07' W 081°08'0 0.0
2014-Dec-18 01:33N 32°07' W 081°08'0 0.0
2014-Dec-18 00:34N 32°07' W 081°08'0 0.0
2014-Dec-17 23:19N 32°07' W 081°08'0 0.0
2014-Dec-17 22:33N 32°07' W 081°08'0 0.0
2014-Dec-17 21:33N 32°07' W 081°08'0 0.0
2014-Dec-17 20:33N 32°07' W 081°08'0 0.0
2014-Dec-17 19:33N 32°07' W 081°08'0 0.0
2014-Dec-17 18:33N 32°07' W 081°08'0 0.0
2014-Dec-17 17:33N 32°07' W 081°08'0 0.0
2014-Dec-17 16:33N 32°07' W 081°08'0 0.0
2014-Dec-17 15:33N 32°07' W 081°08'0 0.0
2014-Dec-17 14:33N 32°07' W 081°08'0 0.0
2014-Dec-17 13:33N 32°07' W 081°08'0 0.0
2014-Dec-17 12:33N 32°07' W 081°08'0 0.0
2014-Dec-17 11:33N 32°07' W 081°08'1 0.9
2014-Dec-17 10:32N 32°07' W 081°07'6 5.3
2014-Dec-17 09:28N 32°06' W 081°01'10911.5
2014-Dec-17 00:00N 32°24' W 078°54'15616.5 140 / 211014.010.8 1.522.011.324.0
2014-Dec-16 14:32N 33°58' W 076°25'4418.6
2014-Dec-16 12:09N 34°27' W 075°45'1017.1
2014-Dec-16 11:33N 34°34' W 075°35'30719.2
2014-Dec-15 19:33N 39°30' W 073°53'2019.8
2014-Dec-15 18:33N 39°50' W 073°52'1817.1
2014-Dec-15 17:31N 40°07' W 073°50'1010.0
2014-Dec-15 16:33N 40°17' W 073°49'9 8.6
2014-Dec-15 15:33N 40°25' W 073°50'1010.0
2014-Dec-15 14:33N 40°31' W 074°00'9 9.1
2014-Dec-15 13:33N 40°39' W 074°08'2 1.7
2014-Dec-15 12:32N 40°40' W 074°09'0 0.0
2014-Dec-15 11:32N 40°40' W 074°09'0 0.0
2014-Dec-15 10:32N 40°40' W 074°09'0 0.0
2014-Dec-15 09:29N 40°40' W 074°08'0 0.0
2014-Dec-15 08:32N 40°40' W 074°09'0 0.0
2014-Dec-15 07:32N 40°40' W 074°09'0 0.0
2014-Dec-15 06:29N 40°40' W 074°09'0 0.0
2014-Dec-15 05:32N 40°40' W 074°09'0 0.0
2014-Dec-15 04:32N 40°40' W 074°09'0 0.0
2014-Dec-15 03:32N 40°40' W 074°09'0 0.0
2014-Dec-15 02:32N 40°40' W 074°09'0 0.0
2014-Dec-15 01:32N 40°40' W 074°09'0 0.0
2014-Dec-15 00:32N 40°40' W 074°09'0 0.0
2014-Dec-14 23:32N 40°40' W 074°09'0 0.0
2014-Dec-14 22:32N 40°40' W 074°09'0 0.0
2014-Dec-14 21:32N 40°40' W 074°09'0 0.0
2014-Dec-14 20:32N 40°40' W 074°09'0 0.0
2014-Dec-14 19:32N 40°40' W 074°09'0 0.0
2014-Dec-14 18:33N 40°40' W 074°09'0 0.0
2014-Dec-14 17:33N 40°40' W 074°09'0 0.0
2014-Dec-14 16:33N 40°40' W 074°09'0 0.0
2014-Dec-14 15:33N 40°40' W 074°09'0 0.0
2014-Dec-14 14:33N 40°40' W 074°09'0 0.0
2014-Dec-14 13:33N 40°40' W 074°09'0 0.0
2014-Dec-14 12:33N 40°40' W 074°09'1 1.4
2014-Dec-14 11:34N 40°39' W 074°09'6 5.5
2014-Dec-14 10:33N 40°36' W 074°03'1110.7
2014-Dec-14 09:33N 40°29' W 073°53'8 8.2
2014-Dec-14 08:33N 40°27' W 073°42'9 8.0
2014-Dec-14 07:22N 40°28' W 073°30'2512.8
2014-Dec-14 05:27N 40°30' W 072°58'1617.7
2014-Dec-14 04:33N 40°30' W 072°37'1817.7
2014-Dec-14 03:33N 40°31' W 072°14'1817.7
2014-Dec-14 02:34N 40°32' W 071°50'1817.7
2014-Dec-14 01:33N 40°32' W 071°27'1817.6
2014-Dec-14 00:33N 40°32' W 071°04'1221.9
2014-Dec-14 00:00N 40°30' W 070°48'814.8 060 / 201003.010.8 1.0 7.0-0.912.0
2014-Dec-13 23:28N 40°33' W 070°39'1817.7
2014-Dec-13 22:27N 40°34' W 070°15'1617.6
2014-Dec-13 21:33N 40°34' W 069°54'2018.2
2014-Dec-13 20:27N 40°34' W 069°28'45510.2
2014-Dec-12 00:00N 43°36' W 060°06'35019.4 110 / 241011.710.8 3.012.010.1 9.0
2014-Dec-11 06:00N 41°54' W 052°30'12020.0 110 / 321016.8 5.4 18.818.8
2014-Dec-11 00:00N 41°12' W 050°00'   120 / 181019.510.8 20.019.220.0

Dump ship's entire track history